Time;durP1;ratioP1;P1;durP2;ratioP2;P2;SDS_P1;SDS_P2;PMS_P1;PMS_P2;Temp;Humidity;BMP_temperature;BMP_pressure;BME280_temperature;BME280_humidity;BME280_pressure;Samples;Min_cycle;Max_cycle;Signal;HPM_P1;HPM_P2
2022/03/17 00:00:14;;;;;;;43.70;32.33;;;5.30;99.90;;;;;;4993473;28;20363;-75
2022/03/17 00:02:40;;;;;;;45.83;33.40;;;5.40;99.90;;;;;;4975928;28;20031;-75
2022/03/17 00:05:08;;;;;;;46.07;33.27;;;5.40;99.90;;;;;;4993604;28;20040;-75
2022/03/17 00:07:42;;;;;;;46.60;33.90;;;5.40;99.90;;;;;;4993670;28;20060;-75
2022/03/17 00:10:10;;;;;;;46.50;33.93;;;5.30;99.90;;;;;;4993319;28;20054;-75
2022/03/17 00:12:35;;;;;;;48.33;34.60;;;5.40;99.90;;;;;;4976172;28;20022;-75
2022/03/17 00:15:02;;;;;;;48.43;35.63;;;5.30;99.90;;;;;;4993354;28;20037;-75
2022/03/17 00:17:28;;;;;;;47.60;33.47;;;5.30;99.90;;;;;;4993305;28;20213;-75
2022/03/17 00:19:53;;;;;;;44.67;34.07;;;5.20;99.90;;;;;;4975788;28;20133;-75
2022/03/17 00:22:19;;;;;;;44.90;34.07;;;5.30;99.90;;;;;;4993204;28;20035;-75
2022/03/17 00:24:46;;;;;;;46.53;33.03;;;5.30;99.90;;;;;;4975783;28;20493;-75
2022/03/17 00:27:12;;;;;;;44.80;32.87;;;5.40;99.90;;;;;;4993505;28;20038;-75
2022/03/17 00:29:39;;;;;;;42.43;31.77;;;5.40;99.90;;;;;;4993078;28;20030;-75
2022/03/17 00:32:06;;;;;;;43.33;32.77;;;5.40;99.90;;;;;;4993212;28;20022;-75
2022/03/17 00:34:32;;;;;;;44.03;33.40;;;5.30;99.90;;;;;;4976011;28;20165;-75
2022/03/17 00:36:57;;;;;;;47.50;31.70;;;5.30;99.90;;;;;;4975693;28;20541;-75
2022/03/17 00:39:23;;;;;;;43.97;31.87;;;5.20;99.90;;;;;;4993068;28;20041;-75
2022/03/17 00:41:49;;;;;;;42.70;30.87;;;5.20;99.90;;;;;;4991758;28;20106;-75
2022/03/17 00:44:15;;;;;;;44.23;32.67;;;5.30;99.90;;;;;;4975866;28;20039;-75
2022/03/17 00:46:41;;;;;;;45.73;33.93;;;5.20;99.90;;;;;;4993042;28;20030;-75
2022/03/17 00:49:07;;;;;;;44.57;32.73;;;5.20;99.90;;;;;;4975454;28;20384;-75
2022/03/17 00:51:34;;;;;;;43.27;30.87;;;5.30;99.90;;;;;;4993553;28;20034;-75
2022/03/17 00:53:59;;;;;;;45.03;31.87;;;5.20;99.90;;;;;;4992908;28;20085;-75
2022/03/17 00:56:26;;;;;;;43.33;31.50;;;5.20;99.90;;;;;;4993508;28;20062;-75
2022/03/17 00:58:52;;;;;;;42.30;30.27;;;5.20;99.90;;;;;;4994398;28;20069;-75
2022/03/17 01:01:18;;;;;;;42.27;31.73;;;5.20;99.90;;;;;;4996645;28;20092;-75
2022/03/17 01:03:46;;;;;;;43.20;31.77;;;5.20;99.90;;;;;;4996872;28;20031;-75
2022/03/17 01:06:12;;;;;;;44.60;31.27;;;5.10;99.90;;;;;;4996591;28;20030;-75
2022/03/17 01:08:38;;;;;;;42.30;31.10;;;5.10;99.90;;;;;;4996547;28;20058;-75
2022/03/17 01:11:05;;;;;;;42.87;31.17;;;5.20;99.90;;;;;;4979692;28;20022;-75
2022/03/17 01:13:31;;;;;;;43.73;30.27;;;5.20;99.90;;;;;;4979514;28;20336;-75
2022/03/17 01:15:57;;;;;;;42.30;30.53;;;5.10;99.90;;;;;;4996644;28;20113;-75
2022/03/17 01:18:23;;;;;;;40.83;30.40;;;5.20;99.90;;;;;;4996580;28;20026;-75
2022/03/17 01:20:50;;;;;;;40.97;30.77;;;5.10;99.90;;;;;;4996512;28;20038;-75
2022/03/17 01:23:16;;;;;;;43.07;31.00;;;5.20;99.90;;;;;;4996528;28;20026;-75
2022/03/17 01:25:42;;;;;;;39.50;28.87;;;5.20;99.90;;;;;;4996581;28;20468;-75
2022/03/17 01:28:08;;;;;;;43.47;31.00;;;5.20;99.90;;;;;;4996757;28;20030;-74
2022/03/17 01:30:35;;;;;;;39.97;29.47;;;5.20;99.90;;;;;;4995181;28;20092;-75
2022/03/17 01:33:01;;;;;;;40.43;29.13;;;5.20;99.90;;;;;;4996562;28;20029;-75
2022/03/17 01:35:27;;;;;;;41.13;29.90;;;5.10;99.90;;;;;;4996297;28;20387;-75
2022/03/17 01:37:52;;;;;;;37.83;28.53;;;5.10;99.90;;;;;;4996313;28;20129;-74
2022/03/17 01:40:18;;;;;;;39.47;29.90;;;5.10;99.90;;;;;;4996309;28;20117;-75
2022/03/17 01:42:44;;;;;;;36.80;28.40;;;5.10;99.90;;;;;;4978761;28;20117;-74
2022/03/17 01:45:10;;;;;;;39.73;28.43;;;5.20;99.90;;;;;;4996147;28;20038;-74
2022/03/17 01:47:36;;;;;;;40.43;29.23;;;5.20;99.90;;;;;;4996227;28;20037;-74
2022/03/17 01:50:08;;;;;;;36.23;28.13;;;5.20;99.90;;;;;;4995910;28;20109;-75
2022/03/17 01:52:34;;;;;;;39.97;28.07;;;5.20;99.90;;;;;;4994771;28;20030;-75
2022/03/17 01:55:01;;;;;;;36.53;27.83;;;5.30;99.90;;;;;;4996043;28;20031;-75
2022/03/17 01:57:26;;;;;;;36.50;27.97;;;5.20;99.90;;;;;;4996288;28;20045;-75
2022/03/17 01:59:52;;;;;;;40.90;28.80;;;5.30;99.90;;;;;;4995939;28;20027;-75
2022/03/17 02:02:18;;;;;;;41.57;28.13;;;5.20;99.90;;;;;;4996246;28;20038;-74
2022/03/17 02:04:46;;;;;;;36.97;28.90;;;5.20;99.90;;;;;;4978331;28;20171;-75
2022/03/17 02:07:14;;;;;;;35.33;27.07;;;5.10;99.90;;;;;;4978758;28;20367;-75
2022/03/17 02:09:41;;;;;;;39.03;28.33;;;5.20;99.90;;;;;;4995015;28;20046;-75
2022/03/17 02:15:15;;;;;;;38.43;28.37;;;5.20;99.90;;;;;;4995729;28;20077;-75
2022/03/17 02:17:41;;;;;;;37.10;27.30;;;5.20;99.90;;;;;;4995395;28;20472;-75
2022/03/17 02:20:09;;;;;;;36.67;28.27;;;5.10;99.90;;;;;;4995807;28;20089;-75
2022/03/17 02:22:41;;;;;;;36.30;26.93;;;5.00;99.90;;;;;;4994670;28;20037;-75
2022/03/17 02:27:51;;;;;;;37.90;28.10;;;5.00;99.90;;;;;;4995498;28;20486;-75
2022/03/17 02:30:20;;;;;;;37.37;28.17;;;5.00;99.90;;;;;;4995368;28;20038;-75
2022/03/17 02:32:46;;;;;;;37.97;30.27;;;4.90;99.90;;;;;;4995308;28;20105;-75
2022/03/17 02:35:22;;;;;;;40.37;28.93;;;4.80;99.90;;;;;;4995250;28;20026;-75
2022/03/17 02:37:51;;;;;;;37.50;28.57;;;4.80;99.90;;;;;;4995216;28;20049;-75
2022/03/17 02:40:17;;;;;;;39.17;27.87;;;4.90;99.90;;;;;;4977838;28;20461;-75
2022/03/17 02:42:43;;;;;;;38.73;27.97;;;4.90;99.90;;;;;;4995059;28;20128;-75
2022/03/17 02:45:12;;;;;;;36.37;28.30;;;4.90;99.90;;;;;;4995027;28;20058;-75
2022/03/17 02:47:39;;;;;;;40.80;29.07;;;4.80;99.90;;;;;;4994991;28;20041;-75
2022/03/17 02:50:06;;;;;;;35.83;27.63;;;4.80;99.90;;;;;;4994904;28;20044;-75
2022/03/17 02:52:32;;;;;;;39.07;28.77;;;4.80;99.90;;;;;;4995249;28;20026;-75
2022/03/17 02:54:58;;;;;;;35.10;27.47;;;4.80;99.90;;;;;;4977403;28;20040;-75
2022/03/17 02:57:24;;;;;;;37.17;28.27;;;4.80;99.90;;;;;;4995438;28;20400;-75
2022/03/17 02:59:51;;;;;;;36.67;26.87;;;4.90;99.90;;;;;;4994871;28;20034;-75
2022/03/17 03:02:18;;;;;;;37.70;27.90;;;5.00;99.90;;;;;;4994726;28;20113;-75
2022/03/17 03:04:43;;;;;;;36.63;28.20;;;4.90;99.90;;;;;;4994996;28;20030;-75
2022/03/17 03:07:09;;;;;;;37.03;28.63;;;4.90;99.90;;;;;;4994916;28;20030;-75
2022/03/17 03:09:35;;;;;;;38.47;29.30;;;4.90;99.90;;;;;;4994451;28;20421;-75
2022/03/17 03:12:01;;;;;;;38.20;29.57;;;4.80;99.90;;;;;;4977082;28;20384;-75
2022/03/17 03:14:27;;;;;;;39.90;28.03;;;4.90;99.90;;;;;;4994592;28;20065;-75
2022/03/17 03:16:53;;;;;;;37.33;27.80;;;4.90;99.90;;;;;;4994480;28;20033;-75
2022/03/17 03:19:19;;;;;;;38.50;28.37;;;4.80;99.90;;;;;;4993114;28;20034;-75
2022/03/17 03:21:44;;;;;;;39.53;29.27;;;4.70;99.90;;;;;;4994351;28;20452;-75
2022/03/17 03:24:11;;;;;;;39.37;28.50;;;4.60;99.90;;;;;;4994932;28;20037;-74
2022/03/17 03:26:38;;;;;;;39.57;29.67;;;4.60;99.90;;;;;;4994304;28;20030;-75
2022/03/17 03:29:06;;;;;;;39.17;29.07;;;4.50;99.90;;;;;;4976755;28;20026;-75
2022/03/17 03:31:34;;;;;;;40.07;28.50;;;4.60;99.90;;;;;;4976750;28;20029;-75
2022/03/17 03:33:59;;;;;;;38.83;29.93;;;4.60;99.90;;;;;;4994164;28;20604;-75
2022/03/17 03:39:09;;;;;;;39.43;29.53;;;4.50;99.90;;;;;;4992356;28;20084;-76
2022/03/17 03:41:34;;;;;;;37.23;28.50;;;4.50;99.90;;;;;;4990575;28;20034;-76
2022/03/17 03:44:00;;;;;;;41.00;30.00;;;4.40;99.90;;;;;;4990866;28;20111;-76
2022/03/17 03:46:26;;;;;;;39.63;29.97;;;4.50;99.90;;;;;;4991601;28;20809;-76
2022/03/17 03:48:52;;;;;;;36.77;28.30;;;4.40;99.90;;;;;;4991278;28;20077;-76
2022/03/17 03:51:17;;;;;;;38.83;28.93;;;4.40;99.90;;;;;;4990890;28;20040;-76
2022/03/17 03:56:27;;;;;;;41.87;30.13;;;4.50;99.90;;;;;;4991693;28;20430;-76
2022/03/17 03:58:53;;;;;;;42.73;29.33;;;4.50;99.90;;;;;;4991443;28;20034;-76
2022/03/17 04:01:19;;;;;;;41.40;30.20;;;4.40;99.90;;;;;;4990926;28;20472;-76
2022/03/17 04:03:45;;;;;;;42.00;29.73;;;4.40;99.90;;;;;;4990861;28;20033;-76
2022/03/17 04:06:10;;;;;;;41.77;29.57;;;4.30;99.90;;;;;;4991043;28;20022;-76
2022/03/17 04:08:36;;;;;;;39.93;29.80;;;4.50;99.90;;;;;;4990842;28;20058;-76
2022/03/17 04:11:02;;;;;;;40.20;29.47;;;4.50;99.90;;;;;;4990736;28;20038;-76
2022/03/17 04:13:27;;;;;;;42.00;30.40;;;4.50;99.90;;;;;;4990876;28;20460;-76
2022/03/17 04:15:53;;;;;;;45.20;31.23;;;4.40;99.90;;;;;;4990981;28;20033;-76
2022/03/17 04:18:19;;;;;;;39.83;30.03;;;4.40;99.90;;;;;;4990861;28;20459;-76
2022/03/17 04:20:44;;;;;;;43.57;31.50;;;4.30;99.90;;;;;;4973193;28;20038;-76
2022/03/17 04:23:10;;;;;;;39.53;29.93;;;4.40;99.90;;;;;;4990949;28;20742;-76
2022/03/17 04:25:36;;;;;;;42.77;30.77;;;4.40;99.90;;;;;;4990834;28;20124;-76
2022/03/17 04:28:04;;;;;;;39.70;31.03;;;4.40;99.90;;;;;;4989502;28;20037;-76
2022/03/17 04:30:30;;;;;;;46.93;30.60;;;4.40;99.90;;;;;;4990555;28;20031;-76
2022/03/17 04:32:56;;;;;;;43.60;30.50;;;4.40;99.90;;;;;;4991193;28;20460;-76
2022/03/17 04:35:21;;;;;;;40.00;30.70;;;4.40;99.90;;;;;;4994881;28;20033;-76
2022/03/17 04:37:47;;;;;;;43.30;31.63;;;4.40;99.90;;;;;;4994867;28;20041;-76
2022/03/17 04:40:13;;;;;;;46.60;34.13;;;4.50;99.90;;;;;;4994716;28;20041;-76
2022/03/17 04:42:39;;;;;;;39.90;29.93;;;4.30;99.90;;;;;;4994763;28;20027;-76
2022/03/17 04:45:05;;;;;;;43.03;32.10;;;4.30;99.90;;;;;;4994371;28;20031;-76
2022/03/17 04:47:30;;;;;;;48.67;30.80;;;4.40;99.90;;;;;;4976887;28;20383;-76
2022/03/17 04:49:56;;;;;;;48.93;33.20;;;4.40;99.90;;;;;;4994159;28;20045;-76
2022/03/17 04:55:06;;;;;;;44.10;31.73;;;4.20;99.90;;;;;;4994643;28;20085;-76
2022/03/17 04:57:31;;;;;;;42.87;31.47;;;4.10;99.90;;;;;;4976467;28;20034;-76
2022/03/17 04:59:57;;;;;;;43.77;32.43;;;4.20;99.90;;;;;;4994513;28;20069;-76
2022/03/17 05:02:23;;;;;;;43.97;32.37;;;4.20;99.90;;;;;;4994538;28;20034;-76
2022/03/17 05:04:48;;;;;;;44.23;32.20;;;4.10;99.90;;;;;;4996853;28;20394;-75
2022/03/17 05:07:14;;;;;;;48.77;33.57;;;4.20;99.90;;;;;;4995360;28;20121;-76
2022/03/17 05:09:39;;;;;;;44.20;32.47;;;4.10;99.90;;;;;;4994017;28;20050;-75
2022/03/17 05:12:05;;;;;;;45.63;33.90;;;4.00;99.90;;;;;;4992254;28;20460;-76
2022/03/17 05:14:31;;;;;;;163.40;104.43;;;3.90;99.90;;;;;;4993458;28;20038;-76
2022/03/17 05:16:57;;;;;;;93.80;61.43;;;3.90;99.90;;;;;;4993014;28;20041;-75
2022/03/17 05:19:22;;;;;;;45.33;33.67;;;3.90;99.90;;;;;;4993235;28;20058;-76
2022/03/17 05:21:48;;;;;;;50.17;37.17;;;4.00;99.90;;;;;;4991230;28;20039;-76
2022/03/17 05:24:13;;;;;;;48.70;35.43;;;3.90;99.90;;;;;;4975636;28;20074;-76
2022/03/17 05:26:39;;;;;;;44.43;34.43;;;3.90;99.90;;;;;;4992901;28;20045;-76
2022/03/17 05:29:06;;;;;;;44.23;32.53;;;3.90;99.90;;;;;;4993242;28;20110;-76
2022/03/17 05:31:31;;;;;;;48.70;35.00;;;3.90;99.90;;;;;;4993038;28;20026;-76
2022/03/17 05:33:57;;;;;;;46.87;33.57;;;4.00;99.90;;;;;;4993660;28;20041;-76
2022/03/17 05:36:25;;;;;;;46.60;33.50;;;4.00;99.90;;;;;;4992667;28;20085;-76
2022/03/17 05:38:51;;;;;;;45.43;33.53;;;4.00;99.90;;;;;;4975264;28;20113;-76
2022/03/17 05:41:16;;;;;;;47.07;35.90;;;3.90;99.90;;;;;;4990523;28;20106;-76
2022/03/17 05:43:42;;;;;;;47.13;35.63;;;3.70;99.90;;;;;;4992622;28;20042;-76
2022/03/17 05:46:07;;;;;;;49.77;36.47;;;3.70;99.90;;;;;;4992331;28;20141;-76
2022/03/17 05:48:33;;;;;;;48.03;34.37;;;3.60;99.90;;;;;;4992323;28;20041;-76
2022/03/17 05:50:59;;;;;;;46.60;35.27;;;3.50;99.90;;;;;;4992063;28;20069;-76
2022/03/17 05:53:24;;;;;;;50.40;35.83;;;3.50;99.90;;;;;;4974970;28;20456;-76
2022/03/17 05:55:50;;;;;;;49.30;35.37;;;3.40;99.90;;;;;;4992705;28;20022;-76
2022/03/17 05:58:15;;;;;;;49.60;35.37;;;3.40;99.90;;;;;;4965271;28;20037;-75
2022/03/17 06:00:41;;;;;;;49.17;35.23;;;3.40;99.90;;;;;;4995745;28;20026;-75
2022/03/17 06:03:06;;;;;;;51.77;36.00;;;3.40;99.90;;;;;;4995888;28;20069;-75
2022/03/17 06:05:32;;;;;;;47.80;34.87;;;3.40;99.90;;;;;;4995866;28;20038;-75
2022/03/17 06:08:02;;;;;;;49.70;35.33;;;3.50;99.90;;;;;;4995649;28;20485;-75
2022/03/17 06:10:32;;;;;;;51.47;35.17;;;3.50;99.90;;;;;;4995901;28;20031;-77
2022/03/17 06:13:00;;;;;;;51.73;36.40;;;3.50;99.90;;;;;;4995785;28;20027;-75
2022/03/17 06:15:26;;;;;;;51.47;36.13;;;3.50;99.90;;;;;;4995662;28;20022;-69
2022/03/17 06:17:56;;;;;;;50.40;35.93;;;3.50;99.90;;;;;;4993667;28;20521;-77
2022/03/17 06:20:27;;;;;;;47.73;35.30;;;3.50;99.90;;;;;;4995164;28;20022;-76
2022/03/17 06:22:54;;;;;;;49.40;36.70;;;3.70;99.90;;;;;;4978054;28;20036;-76
2022/03/17 06:25:23;;;;;;;51.40;36.77;;;3.70;99.90;;;;;;4995387;28;20062;-76
2022/03/17 06:27:49;;;;;;;48.43;35.63;;;3.80;99.90;;;;;;4995656;28;20321;-75
2022/03/17 06:30:17;;;;;;;44.83;34.60;;;3.90;99.90;;;;;;4995461;28;20027;-75
2022/03/17 06:32:44;;;;;;;49.87;35.60;;;3.90;99.90;;;;;;4995469;28;20056;-76
2022/03/17 06:35:17;;;;;;;53.10;36.80;;;4.00;99.90;;;;;;4994242;28;20026;-76
2022/03/17 06:37:44;;;;;;;48.00;34.83;;;4.10;99.90;;;;;;4995248;28;20026;-76
2022/03/17 06:40:11;;;;;;;49.90;35.77;;;4.10;99.90;;;;;;4995279;28;20042;-76
2022/03/17 06:42:37;;;;;;;48.97;35.87;;;4.20;99.90;;;;;;4995170;28;20498;-76
2022/03/17 06:45:03;;;;;;;46.27;34.67;;;4.20;99.90;;;;;;4993769;28;20058;-75
2022/03/17 06:47:28;;;;;;;50.40;35.47;;;4.30;99.90;;;;;;4994971;28;20026;-76
2022/03/17 06:49:54;;;;;;;49.27;36.33;;;4.40;99.90;;;;;;4995039;28;20030;-76
2022/03/17 06:52:20;;;;;;;48.30;34.97;;;4.50;99.90;;;;;;4995369;28;20030;-76
2022/03/17 06:54:46;;;;;;;48.20;35.27;;;4.60;99.90;;;;;;4994021;28;20046;-76
2022/03/17 06:57:16;;;;;;;45.27;34.43;;;4.70;99.90;;;;;;4994286;28;20112;-75
2022/03/17 06:59:42;;;;;;;46.77;35.00;;;4.90;99.90;;;;;;4993683;28;20165;-76
2022/03/17 07:02:08;;;;;;;48.70;34.40;;;4.90;99.90;;;;;;4994755;28;20117;-76
2022/03/17 07:04:33;;;;;;;47.30;35.07;;;5.00;99.90;;;;;;4995038;28;20030;-76
2022/03/17 07:06:59;;;;;;;51.00;36.40;;;5.10;99.90;;;;;;4994726;28;20121;-76
2022/03/17 07:09:28;;;;;;;48.83;34.23;;;5.10;99.90;;;;;;4993244;28;20057;-76
2022/03/17 07:11:54;;;;;;;60.43;36.97;;;5.20;99.90;;;;;;4994550;28;20032;-76
2022/03/17 07:14:20;;;;;;;48.80;35.27;;;5.20;99.90;;;;;;4994623;28;20109;-76
2022/03/17 07:16:45;;;;;;;46.47;34.43;;;5.20;99.90;;;;;;4993160;28;20076;-76
2022/03/17 07:19:11;;;;;;;50.20;34.33;;;5.40;99.90;;;;;;4993290;28;20081;-76
2022/03/17 07:21:36;;;;;;;45.87;34.07;;;5.60;99.90;;;;;;4994380;28;20040;-76
2022/03/17 07:24:04;;;;;;;50.20;34.60;;;5.60;99.90;;;;;;4994388;28;20041;-76
2022/03/17 07:26:29;;;;;;;48.30;34.90;;;5.70;99.90;;;;;;4993548;28;20027;-76
2022/03/17 07:28:56;;;;;;;49.60;34.57;;;5.70;99.90;;;;;;4994217;28;20076;-76
2022/03/17 07:31:22;;;;;;;50.30;34.13;;;5.70;99.90;;;;;;4994562;28;20019;-76
2022/03/17 07:33:49;;;;;;;49.03;34.23;;;5.90;99.90;;;;;;4994185;28;20034;-76
2022/03/17 07:36:15;;;;;;;46.30;34.00;;;6.00;99.90;;;;;;4981743;28;20039;-77
2022/03/17 07:38:45;;;;;;;48.80;33.27;;;6.30;99.90;;;;;;4983246;28;20467;-77
2022/03/17 07:41:11;;;;;;;45.30;33.03;;;6.30;99.90;;;;;;4987158;28;20030;-77
2022/03/17 07:43:37;;;;;;;41.97;31.17;;;6.40;99.90;;;;;;4985690;28;20045;-77
2022/03/17 07:46:03;;;;;;;45.63;32.27;;;6.50;99.90;;;;;;4986534;28;20113;-77
2022/03/17 07:48:28;;;;;;;49.03;32.73;;;6.40;99.90;;;;;;4987625;28;20097;-77
2022/03/17 07:50:54;;;;;;;50.47;33.37;;;6.40;99.90;;;;;;4980971;28;20380;-77
2022/03/17 07:53:19;;;;;;;50.60;34.07;;;6.30;99.90;;;;;;4985831;28;20053;-77
2022/03/17 07:55:47;;;;;;;41.07;29.83;;;6.30;99.90;;;;;;4970387;28;20041;-77
2022/03/17 07:58:13;;;;;;;46.97;31.80;;;6.20;99.90;;;;;;4988073;28;20065;-78
2022/03/17 08:00:40;;;;;;;40.73;30.13;;;6.30;99.90;;;;;;4970257;28;20065;-78
2022/03/17 08:03:06;;;;;;;43.17;30.97;;;6.30;99.90;;;;;;4988270;28;20109;-78
2022/03/17 08:05:31;;;;;;;40.60;31.47;;;6.40;99.90;;;;;;4987704;28;20109;-77
2022/03/17 08:08:00;;;;;;;48.47;30.37;;;6.60;99.90;;;;;;4969303;28;20045;-77
2022/03/17 08:10:28;;;;;;;40.57;29.87;;;6.90;99.90;;;;;;4987911;28;20026;-77
2022/03/17 08:12:54;;;;;;;38.30;29.67;;;6.90;99.90;;;;;;4987566;28;20042;-77
2022/03/17 08:15:19;;;;;;;39.77;30.00;;;6.80;99.90;;;;;;4987733;28;20077;-78
2022/03/17 08:17:45;;;;;;;43.20;29.57;;;6.90;99.90;;;;;;4987471;28;20036;-77
2022/03/17 08:20:11;;;;;;;38.07;29.27;;;6.90;99.90;;;;;;4985370;28;20050;-78
2022/03/17 08:22:36;;;;;;;42.53;30.30;;;6.80;99.90;;;;;;4987203;28;20046;-77
2022/03/17 08:25:03;;;;;;;41.00;30.97;;;6.90;99.90;;;;;;4987856;28;20050;-77
2022/03/17 08:27:29;;;;;;;38.90;29.60;;;7.20;99.90;;;;;;4987837;28;20034;-77
2022/03/17 08:29:55;;;;;;;42.37;31.10;;;7.20;99.90;;;;;;4970053;28;20034;-78
2022/03/17 08:32:21;;;;;;;46.07;31.27;;;7.10;99.90;;;;;;4987624;28;20475;-78
2022/03/17 08:34:46;;;;;;;37.57;28.50;;;7.10;99.90;;;;;;4987359;28;20033;-78
2022/03/17 08:37:12;;;;;;;39.13;28.30;;;7.10;99.90;;;;;;4987418;28;20030;-78
2022/03/17 08:39:38;;;;;;;42.23;30.40;;;7.10;99.90;;;;;;4969845;28;20051;-78
2022/03/17 08:42:04;;;;;;;40.23;30.20;;;7.10;99.90;;;;;;4985976;28;20522;-78
2022/03/17 08:44:30;;;;;;;43.40;29.97;;;7.10;99.90;;;;;;4987540;28;20041;-78
2022/03/17 08:49:39;;;;;;;43.73;31.93;;;7.00;99.90;;;;;;4987310;28;20835;-78
2022/03/17 08:52:07;;;;;;;40.90;30.80;;;7.10;99.90;;;;;;4987467;28;20031;-78
2022/03/17 08:54:34;;;;;;;47.00;31.70;;;7.10;99.90;;;;;;4987447;28;20022;-78
2022/03/17 08:57:01;;;;;;;42.60;31.53;;;7.20;99.90;;;;;;4987472;28;20034;-78
2022/03/17 08:59:34;;;;;;;44.80;29.83;;;7.20;99.90;;;;;;4987603;28;20042;-78
2022/03/17 09:02:05;;;;;;;39.97;28.63;;;7.20;99.90;;;;;;4987305;28;20038;-78
2022/03/17 09:04:32;;;;;;;42.37;28.13;;;7.40;99.90;;;;;;4986339;28;20415;-78
2022/03/17 09:07:02;;;;;;;38.00;27.17;;;7.40;99.90;;;;;;4987518;28;20089;-78
2022/03/17 09:09:32;;;;;;;36.83;26.83;;;7.40;99.90;;;;;;4987542;28;20114;-78
2022/03/17 09:11:59;;;;;;;38.27;26.07;;;7.40;99.90;;;;;;4987223;28;20050;-78
2022/03/17 09:14:25;;;;;;;40.77;26.03;;;7.30;99.90;;;;;;4986932;28;20058;-77
2022/03/17 09:16:51;;;;;;;39.07;26.13;;;7.40;99.90;;;;;;4987498;28;20379;-78
2022/03/17 09:19:19;;;;;;;40.77;27.63;;;7.40;99.90;;;;;;4986708;28;20038;-78
2022/03/17 09:21:45;;;;;;;40.77;27.03;;;7.40;99.90;;;;;;4990822;28;20476;-78
2022/03/17 09:24:11;;;;;;;36.40;27.30;;;7.40;99.90;;;;;;4990824;28;20034;-78
2022/03/17 09:26:36;;;;;;;37.33;26.33;;;7.40;99.90;;;;;;4990570;28;20030;-77
2022/03/17 09:29:03;;;;;;;41.60;27.23;;;7.40;99.90;;;;;;4989189;28;20034;-78
2022/03/17 09:31:29;;;;;;;36.77;24.37;;;7.50;99.90;;;;;;4990813;28;20313;-78
2022/03/17 09:33:55;;;;;;;34.00;24.67;;;7.50;99.90;;;;;;4989358;28;20455;-78
2022/03/17 09:36:22;;;;;;;35.10;25.23;;;7.50;99.90;;;;;;4990648;28;20026;-78
2022/03/17 09:39:39;;;;;;;36.97;23.67;;;7.50;99.90;;;;;;4990243;28;20132;-78
2022/03/17 09:41:35;;;;;;;32.97;24.80;;;7.60;99.90;;;;;;4990662;28;20547;-78
2022/03/17 09:44:02;;;;;;;33.10;24.97;;;7.60;99.90;;;;;;4988858;28;20037;-78
2022/03/17 09:46:28;;;;;;;32.90;24.73;;;7.60;99.90;;;;;;4990245;28;20096;-78
2022/03/17 09:48:55;;;;;;;33.63;24.83;;;7.60;99.90;;;;;;4989930;28;20181;-78
2022/03/17 09:51:23;;;;;;;32.40;24.30;;;7.70;99.90;;;;;;4989403;28;20495;-78
2022/03/17 09:53:53;;;;;;;38.60;26.17;;;7.80;99.90;;;;;;4971971;28;20038;-78
2022/03/17 09:56:23;;;;;;;38.57;26.80;;;7.70;99.90;;;;;;4970616;28;20038;-78
2022/03/17 09:58:50;;;;;;;37.13;26.07;;;7.60;99.90;;;;;;4973469;28;20061;-76
2022/03/17 10:01:16;;;;;;;32.97;23.80;;;7.70;99.90;;;;;;4980977;28;20034;-76
2022/03/17 10:03:43;;;;;;;41.73;27.80;;;7.70;99.90;;;;;;4996043;28;20034;-76
2022/03/17 10:06:10;;;;;;;37.00;25.13;;;7.80;99.90;;;;;;4995936;28;20076;-76
2022/03/17 10:08:38;;;;;;;35.43;25.50;;;8.00;99.90;;;;;;4975115;28;20137;-76
2022/03/17 10:11:04;;;;;;;35.13;26.13;;;8.10;99.90;;;;;;4976205;28;20053;-76
2022/03/17 10:13:29;;;;;;;37.20;24.07;;;8.10;99.90;;;;;;4976065;28;20054;-76
2022/03/17 10:16:10;;;;;;;37.80;26.23;;;8.20;99.90;;;;;;4991216;28;20065;-76
2022/03/17 10:18:38;;;;;;;38.30;24.47;;;8.10;99.90;;;;;;4976174;28;20023;-76
2022/03/17 10:21:11;;;;;;;35.60;23.73;;;8.20;99.90;;;;;;4974748;28;20441;-76
2022/03/17 10:23:48;;;;;;;33.33;24.00;;;8.20;99.90;;;;;;4976105;28;20476;-76
2022/03/17 10:26:34;;;;;;;35.80;24.77;;;8.30;99.90;;;;;;4976102;28;20110;-76
2022/03/17 10:29:05;;;;;;;33.47;24.03;;;8.30;99.90;;;;;;4976380;28;20027;-76
2022/03/17 10:31:31;;;;;;;33.53;24.50;;;8.40;99.90;;;;;;4975045;28;20054;-76
2022/03/17 10:33:57;;;;;;;30.97;22.43;;;8.40;99.90;;;;;;4976351;28;20061;-76
2022/03/17 10:36:22;;;;;;;32.97;24.77;;;8.60;99.90;;;;;;4976123;28;20030;-76
2022/03/17 10:38:49;;;;;;;30.00;23.47;;;8.60;99.90;;;;;;4975894;28;20042;-76
2022/03/17 10:41:15;;;;;;;33.17;24.50;;;8.60;99.90;;;;;;4976085;28;20472;-76
2022/03/17 10:43:42;;;;;;;37.03;23.33;;;8.70;99.90;;;;;;4975775;28;20526;-76
2022/03/17 10:46:16;;;;;;;32.77;23.20;;;8.60;99.90;;;;;;4974556;28;20034;-76
2022/03/17 10:49:05;;;;;;;33.37;23.70;;;8.60;99.90;;;;;;4975958;28;20106;-76
2022/03/17 10:51:33;;;;;;;35.93;24.40;;;8.70;99.90;;;;;;4976047;28;20118;-76
2022/03/17 10:54:11;;;;;;;32.27;23.17;;;8.70;99.90;;;;;;4990602;28;20472;-76
2022/03/17 10:56:38;;;;;;;34.77;23.43;;;8.90;99.90;;;;;;4975960;28;20527;-76
2022/03/17 10:59:07;;;;;;;32.53;24.03;;;8.90;99.90;;;;;;4975464;28;20439;-76
2022/03/17 11:01:41;;;;;;;32.10;23.73;;;8.80;99.90;;;;;;4975500;28;20027;-76
2022/03/17 11:04:07;;;;;;;30.07;22.57;;;8.90;99.90;;;;;;4975494;28;20035;-76
2022/03/17 11:06:33;;;;;;;28.37;22.10;;;8.90;99.90;;;;;;4975344;28;20035;-77
2022/03/17 11:09:01;;;;;;;29.27;21.87;;;8.90;99.90;;;;;;4985156;28;20046;-76
2022/03/17 11:11:28;;;;;;;27.07;21.07;;;9.40;99.90;;;;;;4994965;28;20025;-76
2022/03/17 11:13:56;;;;;;;31.33;22.60;;;9.50;99.90;;;;;;4977151;28;20030;-76
2022/03/17 11:16:29;;;;;;;33.57;21.97;;;9.70;99.90;;;;;;4994648;28;20038;-76
2022/03/17 11:18:55;;;;;;;28.73;21.40;;;9.50;99.90;;;;;;4994380;28;20031;-77
2022/03/17 11:21:28;;;;;;;28.97;21.73;;;9.30;99.90;;;;;;4977051;28;20022;-76
2022/03/17 11:24:06;;;;;;;32.57;22.87;;;9.20;99.90;;;;;;4994667;28;20022;-76
2022/03/17 11:26:41;;;;;;;31.07;21.77;;;9.10;99.90;;;;;;4994462;28;20019;-76
2022/03/17 11:29:12;;;;;;;33.00;23.25;;;9.10;99.90;;;;;;4994307;28;20316;-76
2022/03/17 11:31:56;;;;;;;31.40;24.27;;;9.10;99.90;;;;;;4992845;28;20034;-76
2022/03/17 11:34:48;;;;;;;31.40;22.37;;;9.10;99.90;;;;;;4994214;28;20028;-76
2022/03/17 11:37:24;;;;;;;31.77;22.03;;;9.10;99.90;;;;;;4991106;28;20562;-76
2022/03/17 11:39:54;;;;;;;32.93;21.97;;;9.30;99.90;;;;;;4993978;28;20030;-76
2022/03/17 11:42:30;;;;;;;32.23;22.07;;;9.30;99.90;;;;;;4993892;28;20073;-76
2022/03/17 11:45:11;;;;;;;27.80;22.37;;;9.30;99.90;;;;;;4994044;28;20033;-76
2022/03/17 11:47:38;;;;;;;29.13;22.90;;;9.30;99.90;;;;;;4994079;28;20030;-76
2022/03/17 11:50:25;;;;;;;30.03;21.43;;;9.30;99.90;;;;;;4993698;28;20026;-76
2022/03/17 11:52:58;;;;;;;31.07;22.23;;;9.40;99.90;;;;;;4993830;28;20098;-76
2022/03/17 11:55:42;;;;;;;34.83;22.30;;;9.40;99.90;;;;;;4993837;28;20030;-76
2022/03/17 11:58:26;;;;;;;29.00;22.47;;;9.50;99.90;;;;;;4993994;28;20109;-76
2022/03/17 12:01:02;;;;;;;27.88;21.63;;;9.80;99.90;;;;;;4976823;28;20486;-76
2022/03/17 12:03:37;;;;;;;29.20;21.70;;;10.00;99.90;;;;;;4993982;28;20046;-76
2022/03/17 12:06:15;;;;;;;28.05;20.85;;;10.00;99.90;;;;;;4993729;28;20085;-76
2022/03/17 12:08:49;;;;;;;30.88;21.15;;;10.20;99.90;;;;;;4993846;28;20415;-76
2022/03/17 12:11:16;;;;;;;32.33;22.67;;;10.20;99.90;;;;;;4993570;28;20058;-75
2022/03/17 12:13:43;;;;;;;28.60;21.60;;;10.00;99.90;;;;;;4993457;28;20025;-75
2022/03/17 12:16:12;;;;;;;33.10;22.30;;;10.10;99.90;;;;;;4993630;28;20074;-75
2022/03/17 12:19:01;;;;;;;32.10;21.57;;;10.20;99.90;;;;;;4993261;28;20061;-76
2022/03/17 12:21:58;;;;;;;33.72;22.17;;;10.20;99.90;;;;;;4992975;28;20101;-75
2022/03/17 12:24:35;;;;;;;28.83;22.37;;;10.50;99.90;;;;;;4993300;28;20387;-75
2022/03/17 12:27:28;;;;;;;35.30;23.37;;;10.40;99.90;;;;;;4992796;28;20133;-75
2022/03/17 12:30:17;;;;;;;33.90;21.73;;;10.60;99.90;;;;;;4975824;28;20031;-75
2022/03/17 12:32:49;;;;;;;33.43;26.10;;;10.30;99.90;;;;;;4976234;28;20037;-75
2022/03/17 12:35:17;;;;;;;76.30;51.27;;;10.10;99.90;;;;;;4992892;28;20026;-75
2022/03/17 12:37:44;;;;;;;37.77;26.07;;;10.30;99.90;;;;;;4993363;28;20144;-75
2022/03/17 12:40:20;;;;;;;33.70;24.87;;;10.40;99.90;;;;;;4993057;28;20034;-75
2022/03/17 12:42:48;;;;;;;33.83;22.93;;;10.30;99.90;;;;;;4993636;28;20027;-75
2022/03/17 12:45:21;;;;;;;32.70;23.08;;;10.50;99.90;;;;;;4993349;28;20026;-75
2022/03/17 12:47:52;;;;;;;35.27;23.60;;;10.40;99.90;;;;;;4993537;28;20076;-75
2022/03/17 12:50:19;;;;;;;33.43;23.07;;;10.20;99.90;;;;;;4993399;28;20026;-75
2022/03/17 12:52:47;;;;;;;40.50;25.63;;;10.10;99.90;;;;;;4993042;28;20038;-75
2022/03/17 12:55:14;;;;;;;43.50;32.27;;;10.20;99.90;;;;;;4995507;28;20063;-75